Flight Track Log - Related Links

Times and Time Zones

All times are in EDT time to prevent confusion due to time zone crossing. See the UAL822 flight status page for this flight to view local times or setup timezone preferences in your user account.

Time Position Orientation Groundspeed Altitude Reporting Facility
EDT Latitude Longitude Course Direction KTS MPH feet Rate Location/Type
Tue 04:08:10 PM 32.8667 -97.0333 348° North 172 198 1,500  Level Dallas / Fort Worth TRACON
Tue 04:08:58 PM 32.8333 -97.0167 157° South 214 246 3,100 2,500 Climbing Dallas / Fort Worth TRACON
Tue 04:09:58 PM 32.7833 -96.9833 151° Southeast 268 308 6,000 3,350 Climbing Dallas / Fort Worth TRACON
Tue 04:10:58 PM 32.7667 -96.8833 101° East 275 316 9,800 2,561 Climbing Dallas / Fort Worth TRACON
Tue 04:11:00 PM 32.9241 -96.8000 North  Level FlightAware Approximate
Tue 04:12:00 PM 33.0274 -96.8220 337° Northwest  Level FlightAware Approximate
Tue 04:12:42 PM 32.8717 -96.8122 30° Northeast 298 343 13,000  Level Fort Worth Center
Tue 04:13:00 PM 33.1307 -96.8535 348° North  Level FlightAware Approximate
Tue 04:13:42 PM 32.9864 -96.8142 359° North 332 382 15,800  Level Fort Worth Center
Tue 04:14:42 PM 33.0783 -96.8408 346° North 385 443 18,300 2,550 Climbing Fort Worth Center
Tue 04:15:42 PM 33.1975 -96.8797 345° North 385 443 20,900 2,250 Climbing Fort Worth Center
Tue 04:16:42 PM 33.2958 -96.9114 345° North 396 456 22,800 1,950 Climbing Fort Worth Center
Tue 04:17:42 PM 33.4233 -96.9531 345° North 416 479 24,800 1,700 Climbing Fort Worth Center
Tue 04:18:42 PM 33.5297 -96.9300 10° North 411 473 26,200 1,500 Climbing Fort Worth Center
Tue 04:19:42 PM 33.6608 -96.8819 17° North 435 501 27,800 1,450 Climbing Fort Worth Center
Tue 04:20:42 PM 33.7817 -96.8336 18° North 447 514 29,100 1,400 Climbing Fort Worth Center
Tue 04:21:42 PM 33.8983 -96.7878 18° North 449 517 30,600 1,600 Climbing Fort Worth Center
Tue 04:22:42 PM 34.0214 -96.7369 19° North 454 522 32,300 1,200 Climbing Fort Worth Center
Tue 04:23:42 PM 34.1461 -96.6883 18° North 459 528 33,000 350 Climbing Fort Worth Center
Tue 04:24:42 PM 34.2650 -96.6419 18° North 459 528 33,000  Level Fort Worth Center
Tue 04:25:42 PM 34.3833 -96.5856 21° North 459 528 33,000  Level Fort Worth Center
Tue 04:26:42 PM 34.5000 -96.5239 24° Northeast 454 522 33,000  Level Fort Worth Center
Tue 04:27:42 PM 34.6142 -96.4597 25° Northeast 454 522 33,000  Level Fort Worth Center
Tue 04:28:42 PM 34.7306 -96.3953 24° Northeast 454 522 33,000  Level Fort Worth Center
Tue 04:29:42 PM 34.8489 -96.3331 23° Northeast 459 528 33,000  Level Fort Worth Center
Tue 04:30:42 PM 34.9631 -96.2708 24° Northeast 454 522 33,000  Level Fort Worth Center
Tue 04:31:42 PM 35.0772 -96.2086 24° Northeast 454 522 33,000  Level Fort Worth Center
Tue 04:32:42 PM 35.1914 -96.1458 24° Northeast 449 517 33,000 50 Level Fort Worth Center
Tue 04:33:42 PM 35.3053 -96.0806 25° Northeast 444 511 33,100 800 Climbing Fort Worth Center
Tue 04:34:42 PM 35.4172 -96.0178 25° Northeast 444 511 34,600 950 Climbing Fort Worth Center
Tue 04:35:42 PM 35.5292 -95.9572 24° Northeast 438 504 35,000 200 Climbing Fort Worth Center
Tue 04:36:42 PM 35.6389 -95.8914 26° Northeast 438 504 35,000 250 Level Fort Worth Center
Tue 04:37:42 PM 35.7364 -95.8075 35° Northeast 434 499 35,500 492 Climbing Kansas City Center
Tue 04:38:44 PM 35.8044 -95.6850 56° Northeast 434 499 36,000 290 Climbing Kansas City Center
Tue 04:39:46 PM 35.8694 -95.5614 57° Northeast 432 497 36,100 484 Climbing Kansas City Center
Tue 04:40:48 PM 35.9497 -95.4519 48° Northeast 435 501 37,000 435 Climbing Kansas City Center
Tue 04:41:50 PM 36.0417 -95.3528 41° Northeast 441 507 37,000  Level Kansas City Center
Tue 04:42:52 PM 36.1461 -95.2403 41° Northeast 434 499 37,000  Level Kansas City Center
Tue 04:43:54 PM 36.2506 -95.1650 30° Northeast 435 501 37,000  Level Kansas City Center
Tue 04:44:56 PM 36.3550 -95.0867 31° Northeast 433 498 37,000  Level Kansas City Center
Tue 04:45:59 PM 36.4569 -95.0111 31° Northeast 431 496 37,000  Level Kansas City Center
Tue 04:47:01 PM 36.5578 -94.9344 31° Northeast 428 493 37,000  Level Kansas City Center
Tue 04:48:03 PM 36.6786 -94.8422 31° Northeast 427 491 37,000  Level Kansas City Center
Tue 04:49:05 PM 36.7789 -94.7647 32° Northeast 426 490 37,000  Level Kansas City Center
Tue 04:50:07 PM 36.8669 -94.6628 43° Northeast 431 496 37,000  Level Kansas City Center
Tue 04:51:09 PM 36.9531 -94.5586 44° Northeast 431 496 37,000  Level Kansas City Center
Tue 04:52:11 PM 37.0406 -94.4550 43° Northeast 432 497 37,000  Level Kansas City Center
Tue 04:53:13 PM 37.1278 -94.3500 44° Northeast 434 499 37,000  Level Kansas City Center
Tue 04:54:15 PM 37.2311 -94.2244 44° Northeast 432 497 37,000  Level Kansas City Center
Tue 04:55:17 PM 37.3178 -94.1208 44° Northeast 430 495 37,000  Level Kansas City Center
Tue 04:56:19 PM 37.3994 -94.0233 43° Northeast 431 496 37,000  Level Kansas City Center
Tue 04:57:21 PM 37.4853 -93.9183 44° Northeast 430 495 37,000  Level Kansas City Center
Tue 04:58:23 PM 37.5728 -93.8111 44° Northeast 434 499 37,000  Level Kansas City Center
Tue 04:59:25 PM 37.6781 -93.6844 44° Northeast 434 499 37,000  Level Kansas City Center
Tue 05:00:27 PM 37.7650 -93.5769 44° Northeast 435 501 37,000  Level Kansas City Center
Tue 05:01:29 PM 37.8525 -93.4697 44° Northeast 435 501 37,000  Level Kansas City Center
Tue 05:02:31 PM 37.9386 -93.3622 45° Northeast 434 499 37,000  Level Kansas City Center
Tue 05:03:33 PM 38.0258 -93.2531 45° Northeast 436 502 37,000  Level Kansas City Center
Tue 05:04:35 PM 38.1139 -93.1442 44° Northeast 438 504 37,000  Level Kansas City Center
Tue 05:05:37 PM 38.2014 -93.0339 45° Northeast 439 505 37,000  Level Kansas City Center
Tue 05:06:40 PM 38.3053 -92.9039 44° Northeast 436 502 37,000  Level Kansas City Center
Tue 05:07:42 PM 38.3936 -92.7933 44° Northeast 438 504 37,000  Level Kansas City Center
Tue 05:08:44 PM 38.4817 -92.6814 45° Northeast 441 507 37,000  Level Kansas City Center
Tue 05:09:46 PM 38.5694 -92.5697 45° Northeast 442 509 37,000  Level Kansas City Center
Tue 05:10:48 PM 38.6569 -92.4600 44° Northeast 439 505 37,000  Level Kansas City Center
Tue 05:11:50 PM 38.7436 -92.3450 46° Northeast 443 510 37,000  Level Kansas City Center
Tue 05:12:52 PM 38.8303 -92.2339 45° Northeast 440 506 37,000  Level Kansas City Center
Tue 05:13:54 PM 38.9178 -92.1197 45° Northeast 443 510 37,000  Level Kansas City Center
Tue 05:14:56 PM 39.0228 -91.9858 45° Northeast 443 510 37,000  Level Kansas City Center
Tue 05:15:58 PM 39.1114 -91.8744 44° Northeast 442 509 37,000  Level Kansas City Center
Tue 05:17:00 PM 39.1989 -91.7594 46° Northeast 444 511 37,000  Level Kansas City Center
Tue 05:18:02 PM 39.2867 -91.6397 47° Northeast 451 519 37,000  Level Kansas City Center
Tue 05:19:04 PM 39.3772 -91.5228 45° Northeast 456 525 37,000  Level Kansas City Center
Tue 05:20:06 PM 39.4661 -91.4050 46° Northeast 456 525 37,000  Level Kansas City Center
Tue 05:21:08 PM 39.5539 -91.2883 46° Northeast 454 522 37,000  Level Kansas City Center
Tue 05:22:10 PM 39.6425 -91.1717 45° Northeast 454 522 37,000  Level Kansas City Center
Tue 05:23:12 PM 39.7531 -91.0378 43° Northeast 448 516 37,000  Level Kansas City Center
Tue 05:24:14 PM 39.8489 -90.9417 38° Northeast 449 517 37,000  Level Kansas City Center
Tue 05:25:16 PM 39.9486 -90.8408 38° Northeast 453 521 37,000 -145 Level Kansas City Center
Tue 05:26:18 PM 40.0486 -90.7394 38° Northeast 455 524 36,700 -629 Descending Kansas City Center
Tue 05:27:20 PM 40.1453 -90.6392 38° Northeast 447 514 35,700 -1,782 Descending Kansas City Center
Tue 05:27:59 PM 40.2256 -90.5594 37° Northeast 450 518 33,700 -1,604 Descending Chicago Center
Tue 05:29:01 PM 40.3275 -90.4561 38° Northeast 461 531 33,000 -336 Descending Chicago Center
Tue 05:30:04 PM 40.4294 -90.3511 38° Northeast 464 534 33,000 -192 Level Chicago Center
Tue 05:31:06 PM 40.5308 -90.2464 38° Northeast 463 533 32,600 -823 Descending Chicago Center
Tue 05:32:08 PM 40.6314 -90.1433 38° Northeast 469 540 31,300 -1,161 Descending Chicago Center
Tue 05:33:10 PM 40.7553 -90.0167 38° Northeast 470 541 30,200 -1,016 Descending Chicago Center
Tue 05:34:12 PM 40.8578 -89.9089 38° Northeast 473 544 29,200 -968 Descending Chicago Center
Tue 05:35:14 PM 40.9597 -89.8000 39° Northeast 472 543 28,200 -1,065 Descending Chicago Center
Tue 05:36:16 PM 41.0686 -89.6728 41° Northeast 475 547 27,000 -1,016 Descending Chicago Center
Tue 05:37:18 PM 41.1372 -89.5283 58° Northeast 461 531 26,100 -1,355 Descending Chicago Center
Tue 05:38:20 PM 41.2044 -89.3853 58° Northeast 455 524 24,200 -2,160 Descending Chicago Center
Tue 05:39:23 PM 41.2686 -89.2450 59° Northeast 447 514 21,600 -2,496 Descending Chicago Center
Tue 05:40:25 PM 41.3314 -89.1072 59° Northeast 421 484 19,000 -2,565 Descending Chicago Center
Tue 05:41:27 PM 41.3906 -88.9781 59° Northeast 414 476 16,300 -2,516 Descending Chicago Center
Tue 05:42:29 PM 41.4478 -88.8519 59° Northeast 403 464 13,800 -2,516 Descending Chicago Center
Tue 05:43:31 PM 41.5144 -88.7017 59° Northeast 395 455 11,100 -1,355 Descending Chicago Center
Tue 05:44:33 PM 41.5656 -88.5733 62° Northeast 392 451 11,000 -97 Descending Chicago Center
Tue 05:45:35 PM 41.6197 -88.4467 60° Northeast 393 452 10,900 -387 Descending Chicago Center
Tue 05:46:37 PM 41.6836 -88.3397 51° Northeast 370 426 10,200 -823 Descending Chicago Center
Tue 05:47:39 PM 41.7383 -88.2436 53° Northeast 330 380 9,200 -871 Descending Chicago Center
Tue 05:48:41 PM 41.7956 -88.1481 51° Northeast 327 376 8,400 -629 Descending Chicago Center
Tue 05:49:43 PM 41.8400 -88.0322 63° Northeast 296 341 7,900 -629 Descending Chicago Center
Tue 05:50:45 PM 41.8503 -87.9356 82° East 267 307 7,100 -432 Descending Chicago Center
Tue 05:51:48 PM 41.8581 -87.8492 83° East 246 283 7,000 -67 Descending Chicago Center
Tue 05:52:14 PM 41.8667 -87.8000 77° East 225 259 7,000  Level Chicago TRACON
Tue 05:53:14 PM 41.9167 -87.7833 14° North 234 269 7,000 -100 Level Chicago TRACON
Tue 05:54:14 PM 41.9667 -87.7333 37° Northeast 236 272 6,800 -650 Descending Chicago TRACON
Tue 05:55:14 PM 42.0167 -87.6833 37° Northeast 222 255 5,700 -1,200 Descending Chicago TRACON
Tue 05:56:14 PM 42.0667 -87.6333 37° Northeast 222 255 4,400 -1,053 Descending Chicago TRACON
Tue 05:57:08 PM 42.1167 -87.6167 14° North 224 258 3,700 -736 Descending Chicago TRACON
Tue 05:58:00 PM 42.1433 -87.6542 314° West 211 243 3,100 -368 Descending Chicago Center
Tue 05:59:02 PM 42.1189 -87.7069 238° Southwest 184 212 3,000 -47 Descending Chicago Center
Tue 06:00:08 PM 42.0833 -87.7500 222° Southwest 155 178 3,000  Level Chicago TRACON

Login

Don't have an account? Register now (free) for customized features, flight alerts, and more!